This is the latest recevied weather packets stored in our database for station/object KG6QHD-13. If no packets are shown the sender has not sent any weather packets the latest 10 day(s).
| Time | Temp. | Humidity | Pressure | Rain* | Wind** | Luminosity | Snow |
|---|---|---|---|---|---|---|---|
| 1777349146 | 2.22° C | 89% | 1016.7 hPa | 1.52 mm | - | 0 W/m² | - |
| 1777348549 | 2.22° C | 89% | 1017.1 hPa | 2.29 mm | - | 0 W/m² | - |
| 1777344048 | 3.33° C | 83% | 1016.4 hPa | 2.29 mm | - | 0 W/m² | - |
| 1777343746 | 3.89° C | 83% | 1016.3 hPa | 1.78 mm | - | 0 W/m² | - |
| 1777341048 | 4.44° C | 87% | 1015.4 hPa | 0 mm | - | 0 W/m² | - |
| 1777340145 | 5° C | 86% | 1015.4 hPa | 0.25 mm | - | 0 W/m² | - |
| 1777339547 | 5° C | 86% | 1015.3 hPa | 0.51 mm | - | 0 W/m² | - |
| 1777339245 | 5° C | 86% | 1015.2 hPa | 0.51 mm | - | 0 W/m² | - |
| 1777335351 | 5° C | 82% | 1014.8 hPa | 1.02 mm | - | 49 W/m² | - |
| 1777333244 | 6.11° C | 81% | 1014.8 hPa | 0.76 mm | - | 26 W/m² | - |
| 1777331757 | 6.11° C | 79% | 1014.6 hPa | 0.51 mm | - | 16 W/m² | - |
| 1777331147 | 6.11° C | 76% | 1014.4 hPa | 0.51 mm | - | 25 W/m² | - |
| 1777329648 | 6.11° C | 75% | 1014.4 hPa | 0 mm | - | 35 W/m² | - |
| 1777329056 | 6.11° C | 76% | 1014.1 hPa | 0 mm | - | 47 W/m² | - |
| 1777328749 | 6.11° C | 75% | 1013.8 hPa | 0 mm | - | 107 W/m² | - |
| 1777328444 | 6.11° C | 76% | 1014 hPa | 0 mm | - | 67 W/m² | - |
| 1777326353 | 7.22° C | 71% | 1013.9 hPa | 0 mm | - | 72 W/m² | - |
| 1777324244 | 7.22° C | 71% | 1013.5 hPa | 0 mm | - | 232 W/m² | - |
| 1777323657 | 7.22° C | 69% | 1013.5 hPa | 0 mm | - | 192 W/m² | - |
| 1777322768 | 7.78° C | 65% | 1013.4 hPa | 0 mm | - | 211 W/m² | - |
| 1777321854 | 8.33° C | 63% | 1013.4 hPa | 0 mm | - | 144 W/m² | - |
| 1777318544 | 7.78° C | 61% | 1013.4 hPa | 0 mm | - | 244 W/m² | - |
| 1777317945 | 7.78° C | 63% | 1013.5 hPa | 0 mm | - | 364 W/m² | - |
| 1777314655 | 6.67° C | 70% | 1013.9 hPa | 0 mm | - | 211 W/m² | - |
| 1777313143 | 6.11° C | 70% | 1014 hPa | 0 mm | - | 390 W/m² | - |
* Rain latest hour (hover to see other rain measurements)
** Current wind speed in m/s (hover to see current wind gust speed)